Time;durP1;ratioP1;P1;durP2;ratioP2;P2;SDS_P1;SDS_P2;PMS_P1;PMS_P2;Temp;Humidity;BMP_temperature;BMP_pressure;BME280_temperature;BME280_humidity;BME280_pressure;Samples;Min_cycle;Max_cycle;Signal;HPM_P1;HPM_P2
2023/10/18 00:02:16;;;;;;;3.80;1.90;;;6.50;99.90;;;;;;5057265;28;20509;-61
2023/10/18 00:04:45;;;;;;;4.32;1.90;;;6.50;99.90;;;;;;5065706;28;20132;-62
2023/10/18 00:07:15;;;;;;;2.53;1.85;;;6.50;99.90;;;;;;5045120;28;20052;-62
2023/10/18 00:09:50;;;;;;;2.03;1.80;;;6.50;99.90;;;;;;5045540;28;20045;-61
2023/10/18 00:12:18;;;;;;;1.77;1.67;;;6.50;99.90;;;;;;5057216;28;20049;-62
2023/10/18 00:14:51;;;;;;;3.15;2.00;;;6.50;99.90;;;;;;5067434;28;20482;-62
2023/10/18 00:17:17;;;;;;;3.05;2.10;;;6.50;99.90;;;;;;5068992;28;20137;-61
2023/10/18 00:19:43;;;;;;;4.03;1.90;;;6.40;99.90;;;;;;5051961;28;20495;-61
2023/10/18 00:22:09;;;;;;;2.58;2.00;;;6.30;99.90;;;;;;5047706;28;20111;-62
2023/10/18 00:24:39;;;;;;;5.97;2.50;;;6.40;99.90;;;;;;5051265;28;20571;-61
2023/10/18 00:27:05;;;;;;;2.53;1.90;;;6.40;99.90;;;;;;5049456;28;20468;-62
2023/10/18 00:29:31;;;;;;;3.25;2.30;;;6.40;99.90;;;;;;5056264;28;20441;-61
2023/10/18 00:31:59;;;;;;;4.57;2.42;;;6.40;99.90;;;;;;5064338;28;20078;-62
2023/10/18 00:34:25;;;;;;;4.32;2.50;;;6.40;99.90;;;;;;5068876;28;20422;-75
2023/10/18 00:36:51;;;;;;;3.83;1.95;;;6.30;99.90;;;;;;5064079;28;20044;-61
2023/10/18 00:39:35;;;;;;;3.42;2.63;;;6.30;99.90;;;;;;5046417;28;20037;-62
2023/10/18 00:44:54;;;;;;;4.70;2.30;;;6.40;99.90;;;;;;5067831;28;20525;-62
2023/10/18 00:47:24;;;;;;;2.85;2.05;;;6.40;99.90;;;;;;5041770;28;20048;-83
2023/10/18 00:49:52;;;;;;;4.43;2.67;;;6.40;99.90;;;;;;5056451;28;20537;-61
2023/10/18 00:52:28;;;;;;;3.42;2.17;;;6.40;99.90;;;;;;5046133;28;20036;-62
2023/10/18 00:54:54;;;;;;;5.78;2.40;;;6.30;99.90;;;;;;5048471;28;20045;-61
2023/10/18 00:57:24;;;;;;;4.57;2.28;;;6.30;99.90;;;;;;5026821;28;20042;-61
2023/10/18 00:59:55;;;;;;;;;;;6.40;99.90;;;;;;5043663;28;20554;-62
2023/10/18 01:02:28;;;;;;;2.58;2.38;;;6.30;99.90;;;;;;5047968;28;19932;-65
2023/10/18 01:04:55;;;;;;;3.05;2.75;;;6.30;99.90;;;;;;5048128;28;20053;-62
2023/10/18 01:07:20;;;;;;;5.50;2.80;;;6.40;99.90;;;;;;5031146;28;20037;-62
2023/10/18 01:09:53;;;;;;;2.58;2.30;;;6.40;99.90;;;;;;5054907;28;20394;-61
2023/10/18 01:12:20;;;;;;;4.40;2.50;;;6.50;99.90;;;;;;5044601;28;20579;-62
2023/10/18 01:14:46;;;;;;;3.35;2.10;;;6.40;99.90;;;;;;5049269;28;20482;-62
2023/10/18 01:17:12;;;;;;;2.95;2.60;;;6.40;99.90;;;;;;5068348;28;20047;-62
2023/10/18 01:19:40;;;;;;;2.45;2.25;;;6.50;99.90;;;;;;5067371;28;20437;-62
2023/10/18 01:22:07;;;;;;;5.13;2.55;;;6.40;99.90;;;;;;5040274;28;20098;-62
2023/10/18 01:24:38;;;;;;;6.35;2.60;;;6.50;99.90;;;;;;5066297;28;20044;-61
2023/10/18 01:27:05;;;;;;;2.63;2.22;;;6.50;99.90;;;;;;5066337;28;20044;-62
2023/10/18 01:29:32;;;;;;;3.88;2.40;;;6.50;99.90;;;;;;5050152;28;20406;-62
2023/10/18 01:31:58;;;;;;;2.00;1.90;;;6.50;99.90;;;;;;5056473;28;20033;-62
2023/10/18 01:34:25;;;;;;;4.07;2.35;;;6.50;99.90;;;;;;5049004;28;20053;-62
2023/10/18 01:36:52;;;;;;;2.17;1.70;;;6.40;99.90;;;;;;5067265;28;20112;-62
2023/10/18 01:39:20;;;;;;;4.43;2.47;;;6.50;99.90;;;;;;5067540;28;20384;-62
2023/10/18 01:41:55;;;;;;;5.03;2.35;;;6.40;99.90;;;;;;5062588;28;20058;-61
2023/10/18 01:44:27;;;;;;;3.92;1.98;;;6.40;99.90;;;;;;5051435;28;20052;-61
2023/10/18 01:47:06;;;;;;;4.75;2.10;;;6.40;99.90;;;;;;5067935;28;20037;-61
2023/10/18 01:49:33;;;;;;;2.20;2.00;;;6.40;99.90;;;;;;5066267;28;20485;-62
2023/10/18 01:51:59;;;;;;;3.78;2.08;;;6.50;99.90;;;;;;5049449;28;20502;-61
2023/10/18 01:54:25;;;;;;;4.45;2.33;;;6.40;99.90;;;;;;5050840;28;20051;-62
2023/10/18 01:56:57;;;;;;;2.45;2.13;;;6.50;99.90;;;;;;5066824;28;20040;-61
2023/10/18 01:59:27;;;;;;;7.82;2.33;;;6.40;99.90;;;;;;5067839;28;20095;-61
2023/10/18 02:01:54;;;;;;;2.65;2.22;;;6.50;99.90;;;;;;5051211;28;20281;-62
2023/10/18 02:04:25;;;;;;;4.13;2.55;;;6.40;99.90;;;;;;5052923;28;20537;-62
2023/10/18 02:06:59;;;;;;;3.13;2.45;;;6.40;99.90;;;;;;5064398;28;20051;-61
2023/10/18 02:09:48;;;;;;;3.40;2.42;;;6.40;99.90;;;;;;5056490;28;20059;-62
2023/10/18 02:12:19;;;;;;;4.90;2.35;;;6.30;99.90;;;;;;5053636;28;20380;-62
2023/10/18 02:14:56;;;;;;;4.75;2.15;;;6.30;99.90;;;;;;5047461;28;20448;-61
2023/10/18 02:17:22;;;;;;;4.22;2.38;;;6.30;99.90;;;;;;5067119;28;20479;-62
2023/10/18 02:19:48;;;;;;;5.38;2.47;;;6.30;99.90;;;;;;5066200;28;20086;-62
2023/10/18 02:22:16;;;;;;;3.35;2.60;;;6.30;99.90;;;;;;5054694;28;20048;-62
2023/10/18 02:24:42;;;;;;;4.10;2.35;;;6.20;99.90;;;;;;5048404;28;20116;-62
2023/10/18 02:27:15;;;;;;;3.33;2.65;;;6.20;99.90;;;;;;5041229;28;20041;-62
2023/10/18 02:29:42;;;;;;;4.80;2.72;;;6.30;99.90;;;;;;5051215;28;20498;-61
2023/10/18 02:32:23;;;;;;;5.25;2.78;;;6.30;99.90;;;;;;5064239;28;20048;-62
2023/10/18 02:34:52;;;;;;;6.10;2.72;;;6.20;99.90;;;;;;5067708;28;20051;-62
2023/10/18 02:37:19;;;;;;;2.80;2.47;;;6.30;99.90;;;;;;5055241;28;20135;-62
2023/10/18 02:39:45;;;;;;;4.47;2.88;;;6.30;99.90;;;;;;5045698;28;20121;-62
2023/10/18 02:42:13;;;;;;;4.00;3.08;;;6.30;99.90;;;;;;5066525;28;20052;-61
2023/10/18 02:44:42;;;;;;;6.72;2.70;;;6.30;99.90;;;;;;5066402;28;20166;-62
2023/10/18 02:47:22;;;;;;;4.93;2.63;;;6.20;99.90;;;;;;5058318;28;20101;-62
2023/10/18 02:49:51;;;;;;;4.40;2.60;;;6.20;99.90;;;;;;5065617;28;20136;-62
2023/10/18 02:52:20;;;;;;;5.20;3.50;;;6.20;99.90;;;;;;5067196;28;20072;-62
2023/10/18 02:54:48;;;;;;;4.50;2.65;;;6.20;99.90;;;;;;5065841;28;20494;-62
2023/10/18 02:57:14;;;;;;;5.30;2.72;;;6.20;99.90;;;;;;5061028;28;20047;-62
2023/10/18 02:59:41;;;;;;;4.75;2.53;;;6.10;99.90;;;;;;5047779;28;20161;-62
2023/10/18 03:02:17;;;;;;;6.45;3.22;;;6.20;99.90;;;;;;5059577;28;20056;-62
2023/10/18 03:04:47;;;;;;;3.30;3.00;;;6.20;99.90;;;;;;5049504;28;20045;-62
2023/10/18 03:07:13;;;;;;;3.05;2.78;;;6.10;99.90;;;;;;5057066;28;20044;-62
2023/10/18 03:09:39;;;;;;;5.22;2.92;;;6.10;99.90;;;;;;5058189;28;20106;-62
2023/10/18 03:12:14;;;;;;;4.72;3.30;;;6.10;99.90;;;;;;5047906;28;20127;-61
2023/10/18 03:14:55;;;;;;;8.93;3.08;;;6.10;99.90;;;;;;5042319;28;20478;-61
2023/10/18 03:17:23;;;;;;;3.10;2.80;;;6.10;99.90;;;;;;5066468;28;20047;-62
2023/10/18 03:19:50;;;;;;;3.13;2.83;;;6.00;99.90;;;;;;5063021;28;20493;-62
2023/10/18 03:22:19;;;;;;;3.55;3.25;;;6.10;99.90;;;;;;5063446;28;20040;-62
2023/10/18 03:24:51;;;;;;;4.18;2.80;;;6.10;99.90;;;;;;5068966;28;20482;-61
2023/10/18 03:27:18;;;;;;;6.65;2.75;;;6.10;99.90;;;;;;5070517;28;20037;-62
2023/10/18 03:29:45;;;;;;;4.47;2.83;;;6.10;99.90;;;;;;5052341;28;20464;-62
2023/10/18 03:32:19;;;;;;;5.78;2.58;;;6.00;99.90;;;;;;5051945;28;20127;-62
2023/10/18 03:34:46;;;;;;;5.72;2.65;;;6.10;99.90;;;;;;5056271;28;20483;-62
2023/10/18 03:37:21;;;;;;;6.95;3.17;;;6.10;99.90;;;;;;5068908;28;20044;-62
2023/10/18 03:39:53;;;;;;;4.15;3.10;;;6.10;99.90;;;;;;5070255;28;20425;-62
2023/10/18 03:42:31;;;;;;;7.30;3.33;;;6.10;99.90;;;;;;5031582;28;20521;-62
2023/10/18 03:45:21;;;;;;;4.38;2.42;;;6.00;99.90;;;;;;5069848;28;20512;-62
2023/10/18 03:47:57;;;;;;;4.47;2.90;;;6.10;99.90;;;;;;5052301;28;20387;-62
2023/10/18 03:50:31;;;;;;;3.13;2.83;;;6.10;99.90;;;;;;5068285;28;20485;-61
2023/10/18 03:52:57;;;;;;;5.45;3.40;;;6.00;99.90;;;;;;5057579;28;20051;-62
2023/10/18 03:55:25;;;;;;;3.50;3.17;;;6.00;99.90;;;;;;5062948;28;20056;-61
2023/10/18 03:57:54;;;;;;;7.88;2.67;;;6.10;99.90;;;;;;5061894;28;20041;-62
2023/10/18 04:02:59;;;;;;;4.70;3.20;;;6.00;99.90;;;;;;5057349;28;20048;-62
2023/10/18 04:05:45;;;;;;;4.55;3.53;;;6.10;99.90;;;;;;5068242;28;20505;-62
2023/10/18 04:08:16;;;;;;;8.93;3.42;;;6.00;99.90;;;;;;5068767;28;20115;-62
2023/10/18 04:10:42;;;;;;;3.78;3.10;;;6.00;99.90;;;;;;5068969;28;20127;-62
2023/10/18 04:13:14;;;;;;;4.32;3.50;;;6.00;99.90;;;;;;5061480;28;20127;-61
2023/10/18 04:15:45;;;;;;;6.05;3.78;;;6.00;99.90;;;;;;5050265;28;20048;-62
2023/10/18 04:18:15;;;;;;;4.13;3.60;;;5.90;99.90;;;;;;5070062;28;20392;-62
2023/10/18 04:20:48;;;;;;;7.30;4.95;;;6.00;99.90;;;;;;5068001;28;20056;-62
2023/10/18 04:23:21;;;;;;;4.18;3.72;;;6.00;99.90;;;;;;5025616;28;20056;-62
2023/10/18 04:26:03;;;;;;;6.38;3.40;;;6.00;99.90;;;;;;5055955;28;20047;-62
2023/10/18 04:28:37;;;;;;;8.88;4.35;;;6.00;99.90;;;;;;5050650;28;20049;-62
2023/10/18 04:31:04;;;;;;;6.28;3.78;;;5.90;99.90;;;;;;5067050;28;20048;-62
2023/10/18 04:36:14;;;;;;;7.85;4.60;;;5.90;99.90;;;;;;5062356;28;20147;-62
2023/10/18 04:38:44;;;;;;;9.88;4.30;;;5.90;99.90;;;;;;5068268;28;20044;-62
2023/10/18 04:41:23;;;;;;;7.30;4.75;;;5.90;99.90;;;;;;5068937;28;20045;-62
2023/10/18 04:44:10;;;;;;;9.70;4.85;;;5.80;99.90;;;;;;5051568;28;20261;-62
2023/10/18 04:46:36;;;;;;;7.45;5.13;;;5.90;99.90;;;;;;5063754;28;20037;-62
2023/10/18 04:54:15;;;;;;;7.03;4.43;;;5.80;99.90;;;;;;5068912;28;20154;-62
2023/10/18 04:56:45;;;;;;;8.45;4.78;;;5.90;99.90;;;;;;5053712;28;20055;-62
2023/10/18 05:04:20;;;;;;;7.95;5.85;;;5.80;99.90;;;;;;5067349;28;20060;-62
2023/10/18 05:06:56;;;;;;;10.85;6.05;;;5.80;99.90;;;;;;5038351;28;20048;-62
2023/10/18 05:11:59;;;;;;;11.27;6.18;;;5.70;99.90;;;;;;5067731;28;20493;-62
2023/10/18 05:14:42;;;;;;;12.13;6.60;;;5.70;99.90;;;;;;5068783;28;20051;-62
2023/10/18 05:17:17;;;;;;;12.27;6.53;;;5.60;99.90;;;;;;5046791;28;20120;-62
2023/10/18 05:19:47;;;;;;;11.80;5.78;;;5.60;99.90;;;;;;5047052;28;20522;-62
2023/10/18 05:22:25;;;;;;;10.50;6.55;;;5.60;99.90;;;;;;5042441;28;20534;-62
2023/10/18 05:27:45;;;;;;;10.30;6.70;;;5.60;99.90;;;;;;5051777;28;20076;-62
2023/10/18 05:30:25;;;;;;;9.65;5.95;;;5.60;99.90;;;;;;5067653;28;20409;-62
2023/10/18 05:33:03;;;;;;;15.57;6.65;;;5.50;99.90;;;;;;5066738;28;20398;-62
2023/10/18 05:35:35;;;;;;;10.07;6.82;;;5.50;99.90;;;;;;5058579;28;20044;-62
2023/10/18 05:45:56;;;;;;;16.90;8.13;;;5.50;99.90;;;;;;5061856;28;20041;-62
2023/10/18 05:48:25;;;;;;;17.45;7.78;;;5.60;99.90;;;;;;5048959;28;20056;-61
2023/10/18 05:51:21;;;;;;;19.93;8.20;;;5.50;99.90;;;;;;5056703;28;20063;-62
2023/10/18 05:53:47;;;;;;;11.23;7.00;;;5.50;99.90;;;;;;5040717;28;20348;-61
2023/10/18 05:56:14;;;;;;;15.55;9.05;;;5.50;99.90;;;;;;5055441;28;20580;-62
2023/10/18 05:58:39;;;;;;;26.13;11.52;;;5.50;99.90;;;;;;5057681;28;20414;-62
2023/10/18 06:01:05;;;;;;;16.08;9.07;;;5.60;99.90;;;;;;5038788;28;20041;-62
2023/10/18 06:03:41;;;;;;;14.48;8.05;;;5.50;99.90;;;;;;5037047;28;20078;-62
2023/10/18 06:06:09;;;;;;;16.65;7.90;;;5.50;99.90;;;;;;5047326;28;20097;-62
2023/10/18 06:08:36;;;;;;;14.02;8.35;;;5.50;99.90;;;;;;5045519;28;20414;-62
2023/10/18 06:11:08;;;;;;;14.23;8.80;;;5.60;99.90;;;;;;5047592;28;20269;-62
2023/10/18 06:13:37;;;;;;;13.18;8.18;;;5.50;99.90;;;;;;5040320;28;20046;-62
2023/10/18 06:16:19;;;;;;;14.68;8.38;;;5.60;99.90;;;;;;5015756;28;20064;-62
2023/10/18 06:18:49;;;;;;;17.00;8.05;;;5.60;99.90;;;;;;5027563;28;20065;-62
2023/10/18 06:21:18;;;;;;;13.43;8.02;;;5.50;99.90;;;;;;5046439;28;20105;-62
2023/10/18 06:23:55;;;;;;;15.60;7.67;;;5.50;99.90;;;;;;5043045;28;20041;-62
2023/10/18 06:26:28;;;;;;;13.13;7.47;;;5.50;99.90;;;;;;5042739;28;20291;-62
2023/10/18 06:29:01;;;;;;;13.90;7.90;;;5.60;99.90;;;;;;5026967;28;20072;-62
2023/10/18 06:31:30;;;;;;;10.98;7.53;;;5.50;99.90;;;;;;5022624;28;20056;-62
2023/10/18 06:33:58;;;;;;;15.27;7.85;;;5.50;99.90;;;;;;5040097;28;20057;-62
2023/10/18 06:36:24;;;;;;;11.90;7.63;;;5.60;99.90;;;;;;5044373;28;20111;-62
2023/10/18 06:38:51;;;;;;;14.05;8.27;;;5.60;99.90;;;;;;5045465;28;20073;-62
2023/10/18 06:41:21;;;;;;;18.63;9.30;;;5.50;99.90;;;;;;5047084;28;20128;-62
2023/10/18 06:43:52;;;;;;;14.57;8.05;;;5.70;99.90;;;;;;5045102;28;20045;-61
2023/10/18 06:46:26;;;;;;;12.85;8.57;;;5.60;99.90;;;;;;5037487;28;20055;-62
2023/10/18 06:48:54;;;;;;;12.85;7.65;;;5.70;99.90;;;;;;5049901;28;20117;-61
2023/10/18 06:51:30;;;;;;;12.88;8.13;;;5.70;99.90;;;;;;5032575;28;20053;-62
2023/10/18 06:54:03;;;;;;;15.85;8.48;;;5.80;99.90;;;;;;5051143;28;20037;-61
2023/10/18 06:56:32;;;;;;;14.55;8.20;;;5.80;99.90;;;;;;5048804;28;20117;-61
2023/10/18 06:59:07;;;;;;;14.40;7.97;;;5.80;99.90;;;;;;5048265;28;20116;-61
2023/10/18 07:01:41;;;;;;;15.45;7.47;;;5.80;99.90;;;;;;5048414;28;20116;-62
2023/10/18 07:04:18;;;;;;;13.55;7.30;;;5.90;99.90;;;;;;5050506;28;20076;-62
2023/10/18 07:06:44;;;;;;;11.07;6.82;;;5.90;99.90;;;;;;5031821;28;20422;-62
2023/10/18 07:09:25;;;;;;;13.98;7.03;;;6.00;99.90;;;;;;5049628;28;20033;-62
2023/10/18 07:12:03;;;;;;;12.43;7.32;;;6.00;99.90;;;;;;5061895;28;20071;-62
2023/10/18 07:14:32;;;;;;;11.77;6.80;;;6.00;99.90;;;;;;5069277;28;20033;-62
2023/10/18 07:17:01;;;;;;;9.85;6.22;;;6.10;99.90;;;;;;5065329;28;20087;-62
2023/10/18 07:19:29;;;;;;;12.73;6.85;;;6.10;99.90;;;;;;5065087;28;20382;-62
2023/10/18 07:22:00;;;;;;;9.18;5.80;;;6.10;99.90;;;;;;5068927;28;20044;-62
2023/10/18 07:24:36;;;;;;;10.80;7.00;;;6.10;99.90;;;;;;5070163;28;20102;-62
2023/10/18 07:27:09;;;;;;;15.10;5.90;;;6.20;99.90;;;;;;5051648;28;20044;-62
2023/10/18 07:29:45;;;;;;;10.48;5.60;;;6.20;99.90;;;;;;5065021;28;20482;-62
2023/10/18 07:32:12;;;;;;;15.10;7.32;;;6.40;99.90;;;;;;5068679;28;20135;-62
2023/10/18 07:34:39;;;;;;;10.20;6.13;;;6.40;99.90;;;;;;5069906;28;20509;-62
2023/10/18 07:37:17;;;;;;;10.73;6.32;;;6.50;99.90;;;;;;5070070;28;20070;-62
2023/10/18 07:39:56;;;;;;;10.82;6.15;;;6.50;99.90;;;;;;5052486;28;20052;-62
2023/10/18 07:42:26;;;;;;;11.95;6.28;;;6.60;99.90;;;;;;5064943;28;20053;-62
2023/10/18 07:44:55;;;;;;;9.73;5.70;;;6.60;99.90;;;;;;5047975;28;20940;-62
2023/10/18 07:47:25;;;;;;;12.65;7.57;;;6.70;99.90;;;;;;5059544;28;20162;-62
2023/10/18 07:49:55;;;;;;;12.40;6.78;;;6.70;99.90;;;;;;5069726;28;20524;-62
2023/10/18 07:52:21;;;;;;;12.70;7.35;;;6.80;99.90;;;;;;5069256;28;20051;-62
2023/10/18 07:54:48;;;;;;;11.27;6.43;;;6.90;99.90;;;;;;5070000;28;20399;-62
2023/10/18 07:57:17;;;;;;;11.10;7.30;;;7.00;99.90;;;;;;5055228;28;20051;-62
2023/10/18 07:59:46;;;;;;;14.00;7.13;;;7.10;99.90;;;;;;5061518;28;20079;-62
2023/10/18 08:02:13;;;;;;;13.27;6.95;;;7.20;99.90;;;;;;5035747;28;20101;-62
2023/10/18 08:04:43;;;;;;;13.50;7.90;;;7.30;99.90;;;;;;5069602;28;20106;-62
2023/10/18 08:07:19;;;;;;;16.95;9.98;;;7.20;99.90;;;;;;5055179;28;20233;-62
2023/10/18 08:09:48;;;;;;;15.63;9.68;;;7.40;99.90;;;;;;5060750;28;20052;-62
2023/10/18 08:12:33;;;;;;;20.27;12.43;;;7.50;99.90;;;;;;5047885;28;20041;-62
2023/10/18 08:14:59;;;;;;;18.45;11.57;;;7.50;99.90;;;;;;5068236;28;20036;-62
2023/10/18 08:17:30;;;;;;;15.55;11.27;;;7.60;99.90;;;;;;5070170;28;20037;-63
2023/10/18 08:22:45;;;;;;;9.23;6.55;;;7.70;99.90;;;;;;5058856;28;20107;-63
2023/10/18 08:25:24;;;;;;;13.75;6.75;;;7.80;99.90;;;;;;5063653;28;20037;-62
2023/10/18 08:27:54;;;;;;;8.10;6.00;;;7.90;99.90;;;;;;5064731;28;20040;-62
2023/10/18 08:31:02;;;;;;;12.07;6.80;;;8.00;99.90;;;;;;5069774;28;20078;-63
2023/10/18 08:33:24;;;;;;;10.68;6.15;;;8.10;99.90;;;;;;5031086;28;20178;-62
2023/10/18 08:35:58;;;;;;;9.20;6.43;;;8.20;99.90;;;;;;5047833;28;20065;-62
2023/10/18 08:38:28;;;;;;;10.52;5.88;;;8.30;99.90;;;;;;5014736;28;20491;-63
2023/10/18 08:41:13;;;;;;;9.63;5.70;;;8.40;99.90;;;;;;5030077;28;20136;-62
2023/10/18 08:43:58;;;;;;;10.85;6.18;;;8.40;99.90;;;;;;5035561;28;20052;-62
2023/10/18 08:46:26;;;;;;;8.05;5.07;;;8.50;99.90;;;;;;5049067;28;20055;-62
2023/10/18 08:48:55;;;;;;;8.75;5.20;;;8.50;99.90;;;;;;5029397;28;20479;-62
2023/10/18 08:51:24;;;;;;;5.40;4.30;;;8.50;99.90;;;;;;5047414;28;20130;-62
2023/10/18 08:53:53;;;;;;;7.30;5.63;;;8.50;99.90;;;;;;5053124;28;20458;-63
2023/10/18 08:56:29;;;;;;;7.03;5.07;;;8.50;99.90;;;;;;5034078;28;20045;-63
2023/10/18 08:58:58;;;;;;;7.30;5.20;;;8.60;99.90;;;;;;5033989;28;20124;-62
2023/10/18 09:01:25;;;;;;;8.70;4.90;;;8.60;99.90;;;;;;5044844;28;20047;-63
2023/10/18 09:03:51;;;;;;;9.77;4.38;;;8.80;99.90;;;;;;5041604;28;20506;-63
2023/10/18 09:06:31;;;;;;;6.60;5.18;;;8.80;99.90;;;;;;5042451;28;20041;-62
2023/10/18 09:09:10;;;;;;;7.85;4.80;;;8.80;99.90;;;;;;5047522;28;20045;-62
2023/10/18 09:11:47;;;;;;;6.85;4.75;;;8.80;99.90;;;;;;5051701;28;20113;-62
2023/10/18 09:14:15;;;;;;;6.85;5.15;;;8.80;99.90;;;;;;5064817;28;20056;-62
2023/10/18 09:16:46;;;;;;;8.10;4.53;;;8.90;99.90;;;;;;5054523;28;20048;-62
2023/10/18 09:19:12;;;;;;;9.05;5.15;;;8.90;99.90;;;;;;5050261;28;20403;-62
2023/10/18 09:21:44;;;;;;;12.52;5.13;;;9.00;99.90;;;;;;5047313;28;20044;-62
2023/10/18 09:24:10;;;;;;;9.05;5.18;;;9.00;99.90;;;;;;5044218;28;20040;-62
2023/10/18 09:26:40;;;;;;;11.05;5.53;;;9.10;99.90;;;;;;5047173;28;20048;-62
2023/10/18 09:29:08;;;;;;;;;;;9.20;99.90;;;;;;5047038;28;20088;-62
2023/10/18 09:31:34;;;;;;;5.68;4.63;;;9.20;99.90;;;;;;5044910;28;20039;-63
2023/10/18 09:34:07;;;;;;;10.18;4.70;;;9.30;99.90;;;;;;5027595;28;20447;-62
2023/10/18 09:36:38;;;;;;;4.35;3.83;;;9.30;99.90;;;;;;5047913;28;20044;-62
2023/10/18 09:39:11;;;;;;;9.15;4.45;;;9.30;99.90;;;;;;5054480;28;20044;-62
2023/10/18 09:41:39;;;;;;;5.30;4.80;;;9.30;99.90;;;;;;5025107;28;20653;-62
2023/10/18 09:44:06;;;;;;;6.82;4.43;;;9.40;99.90;;;;;;5045791;28;20056;-63
2023/10/18 09:46:34;;;;;;;5.53;4.40;;;9.50;99.90;;;;;;5027351;28;20124;-62
2023/10/18 09:49:00;;;;;;;7.57;5.43;;;9.50;99.90;;;;;;5043150;28;20067;-62
2023/10/18 09:51:26;;;;;;;6.05;5.38;;;9.60;99.90;;;;;;5041951;28;20047;-65
2023/10/18 09:53:54;;;;;;;9.23;5.88;;;9.70;99.90;;;;;;5028032;28;20044;-62
2023/10/18 09:56:33;;;;;;;7.80;4.97;;;9.70;99.90;;;;;;5044425;28;20031;-62
2023/10/18 09:59:12;;;;;;;7.13;3.25;;;9.80;99.90;;;;;;5047384;28;20037;-62
2023/10/18 10:04:14;;;;;;;12.52;5.18;;;9.90;99.90;;;;;;5046793;28;20044;-62
2023/10/18 10:06:47;;;;;;;7.13;4.88;;;10.00;99.90;;;;;;5032805;28;20495;-62
2023/10/18 10:09:14;;;;;;;8.45;4.75;;;10.10;99.90;;;;;;5047534;28;20427;-62
2023/10/18 10:11:44;;;;;;;5.10;4.60;;;10.10;99.90;;;;;;5033883;28;20491;-62
2023/10/18 10:14:22;;;;;;;6.95;4.80;;;10.20;99.90;;;;;;5040667;28;20099;-62
2023/10/18 10:17:05;;;;;;;5.97;4.35;;;10.20;99.90;;;;;;5029206;28;20134;-62
2023/10/18 10:19:46;;;;;;;6.13;4.60;;;10.20;99.90;;;;;;5041354;28;20044;-62
2023/10/18 10:22:15;;;;;;;5.50;4.72;;;10.30;99.90;;;;;;5041335;28;20433;-62
2023/10/18 10:24:42;;;;;;;5.07;3.78;;;10.40;99.90;;;;;;5045769;28;20078;-62
2023/10/18 10:29:56;;;;;;;11.10;4.85;;;10.40;97.50;;;;;;5045261;28;20063;-62
2023/10/18 10:32:24;;;;;;;6.32;4.53;;;10.40;98.00;;;;;;5040684;28;20183;-62
2023/10/18 10:35:15;;;;;;;5.20;4.68;;;10.40;96.60;;;;;;5046729;28;20041;-62
2023/10/18 10:37:55;;;;;;;6.47;4.65;;;10.40;96.40;;;;;;5035044;28;20044;-62
2023/10/18 10:43:14;;;;;;;9.30;5.22;;;10.40;95.50;;;;;;5035540;28;20128;-62
2023/10/18 10:48:16;;;;;;;6.88;4.32;;;10.50;93.60;;;;;;5043585;28;20049;-62
2023/10/18 10:50:52;;;;;;;8.00;5.00;;;10.50;96.90;;;;;;5038458;28;20563;-62
2023/10/18 10:53:29;;;;;;;8.63;4.45;;;10.60;94.50;;;;;;5037566;28;20044;-62
2023/10/18 10:55:55;;;;;;;5.22;4.68;;;10.60;92.40;;;;;;5040008;28;20107;-62
2023/10/18 10:58:22;;;;;;;7.30;4.85;;;10.60;94.00;;;;;;5043165;28;20045;-62
2023/10/18 11:01:31;;;;;;;11.50;4.95;;;10.70;93.70;;;;;;5039676;28;20041;-62
2023/10/18 11:03:59;;;;;;;4.82;4.43;;;10.70;91.70;;;;;;5020541;28;20083;-62
2023/10/18 11:06:32;;;;;;;7.20;5.07;;;10.80;97.20;;;;;;5027162;28;20041;-62
2023/10/18 11:08:58;;;;;;;5.15;4.65;;;10.90;93.30;;;;;;5036071;28;20048;-61
2023/10/18 11:11:27;;;;;;;9.25;5.07;;;10.90;90.20;;;;;;5045425;28;20037;-64
2023/10/18 11:13:53;;;;;;;5.25;4.50;;;10.90;88.90;;;;;;5052400;28;20115;-62
2023/10/18 11:16:22;;;;;;;5.63;4.32;;;11.00;92.10;;;;;;5046599;28;20044;-62
2023/10/18 11:18:49;;;;;;;6.60;4.17;;;11.00;90.20;;;;;;5066966;28;20514;-62
2023/10/18 11:21:19;;;;;;;4.45;4.03;;;11.00;88.30;;;;;;5064941;28;20075;-62
2023/10/18 11:24:02;;;;;;;4.82;4.40;;;11.00;93.50;;;;;;5019726;28;20124;-62
2023/10/18 11:26:29;;;;;;;5.10;4.35;;;11.10;87.10;;;;;;5063759;28;20107;-62
2023/10/18 11:28:56;;;;;;;7.47;4.70;;;11.10;86.10;;;;;;5054081;28;20037;-62
2023/10/18 11:31:29;;;;;;;6.57;4.50;;;11.10;90.50;;;;;;5034073;28;20040;-62
2023/10/18 11:36:32;;;;;;;7.82;4.90;;;11.20;88.30;;;;;;5053848;28;20082;-62
2023/10/18 11:39:18;;;;;;;5.82;4.60;;;11.20;82.10;;;;;;5051042;28;20511;-62
2023/10/18 11:41:48;;;;;;;7.47;4.60;;;11.20;82.80;;;;;;5028565;28;20045;-62
2023/10/18 11:44:33;;;;;;;5.78;4.10;;;11.20;85.70;;;;;;5044783;28;20117;-62
2023/10/18 11:47:19;;;;;;;4.45;4.05;;;11.20;89.20;;;;;;5041022;28;20040;-62
2023/10/18 11:49:48;;;;;;;5.00;3.90;;;11.20;74.70;;;;;;5061415;28;20064;-62
2023/10/18 11:52:22;;;;;;;6.10;4.65;;;11.20;79.70;;;;;;5069808;28;20402;-62
2023/10/18 11:54:52;;;;;;;4.90;4.13;;;11.20;83.90;;;;;;5023839;28;20075;-62
2023/10/18 11:57:29;;;;;;;5.35;4.10;;;11.20;79.40;;;;;;5038532;28;20489;-62
2023/10/18 11:59:56;;;;;;;5.18;4.28;;;11.20;77.20;;;;;;5041737;28;20090;-62
2023/10/18 12:02:28;;;;;;;5.90;4.38;;;11.20;74.10;;;;;;5042211;28;20037;-62
2023/10/18 12:04:57;;;;;;;6.93;4.60;;;11.20;80.30;;;;;;5040159;28;20387;-62
2023/10/18 12:07:24;;;;;;;5.05;4.35;;;11.10;73.30;;;;;;5042640;28;20115;-62
2023/10/18 12:09:54;;;;;;;4.20;3.80;;;11.10;72.60;;;;;;5056447;28;20397;-62
2023/10/18 12:12:20;;;;;;;5.32;3.92;;;11.20;70.10;;;;;;5061159;28;20140;-62
2023/10/18 12:14:49;;;;;;;7.97;4.35;;;11.10;69.90;;;;;;5066139;28;20124;-62
2023/10/18 12:17:15;;;;;;;4.32;3.90;;;11.10;66.60;;;;;;5053974;28;20048;-62
2023/10/18 12:19:42;;;;;;;7.88;4.70;;;11.10;75.00;;;;;;5046589;28;20068;-61
2023/10/18 12:22:15;;;;;;;5.38;4.15;;;11.10;69.50;;;;;;5004129;28;20041;-62
2023/10/18 12:24:41;;;;;;;7.10;3.88;;;11.10;69.10;;;;;;5051133;28;20193;-62
2023/10/18 12:27:34;;;;;;;4.80;4.03;;;11.10;79.60;;;;;;5038492;28;20049;-62
2023/10/18 12:29:54;;;;;;;6.72;3.97;;;11.20;83.30;;;;;;5063729;28;20554;-62
2023/10/18 12:32:25;;;;;;;4.60;4.20;;;11.10;77.30;;;;;;5064831;28;20048;-62
2023/10/18 12:34:55;;;;;;;6.07;4.55;;;11.10;79.80;;;;;;5040489;28;20048;-62
2023/10/18 12:37:25;;;;;;;4.90;4.22;;;11.10;73.10;;;;;;5044983;28;20049;-62
2023/10/18 12:39:51;;;;;;;5.30;3.77;;;11.00;74.50;;;;;;5058289;28;20049;-62
2023/10/18 12:42:19;;;;;;;8.15;4.72;;;11.00;72.50;;;;;;5026718;28;20049;-62
2023/10/18 12:44:46;;;;;;;5.32;4.25;;;10.90;75.60;;;;;;5044377;28;20053;-62
2023/10/18 12:47:22;;;;;;;4.97;4.32;;;11.00;75.30;;;;;;5043123;28;20048;-62
2023/10/18 12:49:50;;;;;;;5.80;4.40;;;10.90;76.60;;;;;;5042975;28;20055;-62
2023/10/18 12:55:44;;;;;;;4.85;4.18;;;11.00;82.80;;;;;;5037772;28;20045;-62
2023/10/18 12:57:50;;;;;;;7.70;4.85;;;11.00;74.00;;;;;;5033612;28;20061;-62
2023/10/18 13:00:16;;;;;;;4.38;3.67;;;11.00;71.50;;;;;;5045978;28;20088;-62
2023/10/18 13:05:21;;;;;;;14.23;4.07;;;11.00;72.70;;;;;;5045949;28;20076;-62
2023/10/18 13:07:52;;;;;;;5.32;4.15;;;11.00;67.70;;;;;;5013499;28;20048;-62
2023/10/18 13:10:31;;;;;;;8.23;4.50;;;11.10;75.60;;;;;;5050098;28;20395;-62
2023/10/18 13:13:04;;;;;;;9.35;4.32;;;11.10;76.60;;;;;;5030083;28;20171;-62
2023/10/18 13:15:33;;;;;;;7.47;4.07;;;11.10;71.50;;;;;;5050267;28;20507;-62
2023/10/18 13:17:59;;;;;;;5.57;4.45;;;11.20;76.00;;;;;;5053907;28;20044;-62
2023/10/18 13:20:24;;;;;;;5.68;4.72;;;11.20;74.00;;;;;;5030388;28;20041;-62
2023/10/18 13:22:56;;;;;;;6.90;4.35;;;11.20;70.60;;;;;;5064706;28;20066;-62
2023/10/18 13:25:26;;;;;;;5.30;4.13;;;11.20;68.90;;;;;;5054383;28;20499;-62
2023/10/18 13:27:55;;;;;;;7.03;4.32;;;11.20;61.40;;;;;;5050377;28;20044;-62
2023/10/18 13:30:39;;;;;;;5.15;4.20;;;11.10;63.80;;;;;;5061062;28;20044;-62
2023/10/18 13:33:14;;;;;;;4.82;3.60;;;11.20;60.50;;;;;;5045349;28;20114;-62
2023/10/18 13:35:40;;;;;;;6.80;4.30;;;11.10;62.50;;;;;;5035646;28;20101;-62
2023/10/18 13:38:06;;;;;;;5.45;4.07;;;11.20;67.80;;;;;;5055484;28;20510;-62
2023/10/18 13:40:36;;;;;;;6.10;3.75;;;11.20;65.30;;;;;;5061756;28;20116;-62
2023/10/18 13:43:09;;;;;;;;;;;11.20;67.50;;;;;;5055856;28;20514;-62
2023/10/18 13:45:34;;;;;;;4.80;3.33;;;11.20;65.40;;;;;;5040052;28;19925;-62
2023/10/18 13:48:01;;;;;;;6.03;4.28;;;11.10;65.70;;;;;;5051359;28;20556;-62
2023/10/18 13:50:31;;;;;;;7.82;4.75;;;11.10;67.10;;;;;;5062998;28;20055;-62
2023/10/18 13:52:56;;;;;;;7.40;4.30;;;11.20;72.00;;;;;;5055297;28;20424;-61
2023/10/18 13:55:22;;;;;;;7.78;4.55;;;11.20;64.80;;;;;;5045788;28;20148;-61
2023/10/18 13:57:49;;;;;;;6.60;4.28;;;11.10;61.40;;;;;;5046702;28;20067;-61
2023/10/18 14:00:15;;;;;;;7.13;4.05;;;11.10;64.10;;;;;;5050148;28;20380;-61
2023/10/18 14:02:41;;;;;;;6.43;4.50;;;11.10;66.10;;;;;;5046312;28;20493;-61
2023/10/18 14:05:07;;;;;;;7.40;4.20;;;11.10;65.20;;;;;;5048837;28;20127;-62
2023/10/18 14:07:37;;;;;;;5.55;4.30;;;11.20;66.10;;;;;;5032123;28;20128;-61